Saturday, November 01, 2014
06:19 UTC
  |  Log In   |  Register Free
Airport Search:

Tyler Pounds Regional Airport
(KTYR)

FAA data valid effective September 18, 2014 - November 13, 2014 (unless otherwise noted).

 
 
 
 
 
 
 
 
 
 
 
 
 
 

Current Aviation Weather for Tyler Pounds Regional Airport (KTYR)

The most recent METAR observation for KTYR was updated at: 0538
METAR Summary (Translated METAR)
KTYR
010453Z 02007KT 10SM CLR 10/03 A3033 RMK AO2 SLP269 T01000028
KJDD
010555Z AUTO 00000KT 10SM CLR 07/03 A3037 RMK AO2
(23.8 nm NW from KTYR)
KF44
010555Z AUTO 02006KT 10SM CLR 08/03 A3033 RMK AO2
(24.5 nm SW from KTYR)
TAF Summary (Translated TAF)
KTYR
311720Z 3118/0118 34011G18KT P6SM SKC FM312000 36015G24KT P6SM FEW040 FM010000 01009KT P6SM SKC FM010500 01005KT P6SM SKC
  Airport Weather Conditions for KTYR

 Current Weather at TYR
48° F
Fair
North winds at 6.9 mph
TYR NOAA Radar

Pressure: 30.33 in
Humidity: 66%
Wind: North at 6.9 MPH (6 KT)
Dew Point: 37.0°F
Visibility: 10.00 mi


Airport Weather Forecast for KTYR

Translated METAR and TAF for KTYR
Translated METAR for KTYR (0614 UTC 01 November 2014)
found at http://aviationweather.gov/adds/metars/
 
METAR text: KTYR 010553Z 01006KT 10SM CLR 09/03 A3033 RMK AO2 SLP268 T00890028 10150 20089 402060089 50003 $
Conditions at: KTYR (TYLER , TX, US) observed 0553 UTC 01 November 2014
Temperature: 8.9°C (48°F)
Dewpoint: 2.8°C (37°F) [RH = 66%]
Pressure (altimeter): 30.33 inches Hg (1027.2 mb)
[Sea-level pressure: 1026.8 mb]
Winds: from the N (10 degrees) at 7 MPH (6 knots; 3.1 m/s)
Visibility: 10 or more miles (16+ km)
Ceiling: at least 12,000 feet AGL
Clouds: sky clear below 12,000 feet AGL
Weather:
SOME DATA ABOVE MAY BE INACCURATE!!!
"$" is an indication the sensor requires maintenance
Translated TAF for KTYR
Forecast for: KTYR (TYLER , TX, US)
TAF Text: KTYR 010523Z 0106/0206 01009KT P6SM SKC
Forecast period: 0600 to 0800 UTC 01 November 2014
Forecast type: FROM: standard forecast or significant change
Winds: from the N (10 degrees) at 10 MPH (9 knots; 4.7 m/s)
Visibility: 6 or more miles (10+ km)
Clouds: clear skies
Weather: no significant weather forecast for this period
TAF Text: FM010800 04004KT P6SM SKC
Forecast period: 0800 to 1500 UTC 01 November 2014
Forecast type: FROM: standard forecast or significant change
Winds: from the NE (40 degrees) at 5 MPH (4 knots; 2.1 m/s)
Visibility: 6 or more miles (10+ km)
Clouds: clear skies
Weather: no significant weather forecast for this period
TAF Text: FM011500 07009KT P6SM SKC
Forecast period: 1500 to 2300 UTC 01 November 2014
Forecast type: FROM: standard forecast or significant change
Winds: from the ENE (70 degrees) at 10 MPH (9 knots; 4.7 m/s)
Visibility: 6 or more miles (10+ km)
Clouds: clear skies
Weather: no significant weather forecast for this period
TAF Text: FM012300 10006KT P6SM SKC
Forecast period: 2300 UTC 01 November 2014 to 0600 UTC 02 November 2014
Forecast type: FROM: standard forecast or significant change
Winds: from the E (100 degrees) at 7 MPH (6 knots; 3.1 m/s)
Visibility: 6 or more miles (10+ km)
Clouds: clear skies
Weather: no significant weather forecast for this period

Find All Airport Services Find A Hotel Find A Rental Car Find A Golf Course Find A Restaurant $100 Hamburger



FBO's on the Field
FBO Company Facility Photos Services Transportation Aviation Fuel Prices: Prices include tax
Catering Weather Repair Courtesy Rental Type 100LL JetA JetA+ MOGAS 8087
 
Jet Center of Tyler

Currently rated 5 by 1 person
FS:Phillips 66
Last Updated: Oct-28
Login to update fuel prices
SS:
Contact Jet Center of TylerMore FBO Information
 
Johnson Aviation, Inc

Currently rated 4.1 by 2 people
FS:Avfuel
Last Updated: Oct-06
Login to update fuel prices
SS:
Contact Johnson Aviation, IncMore FBO Information
 
Add another FBO Facility Photos Catering Weather Repair Courtesy Rental Type 100LL JetA JetA+ MOGAS 8087
Services Transportation Aviation Fuel Prices: Prices include tax


model-print
model-print
model-print
model-print